sensor_id;sensor_type;location;lat;lon;timestamp;pressure;altitude;pressure_sealevel;temperature;humidity
60583;BME280;46415;47.536;19.066;2023-01-29T00:00:17;101150.44;;;0.42;100.00
60583;BME280;46415;47.536;19.066;2023-01-29T00:03:21;101147.06;;;0.45;100.00
60583;BME280;46415;47.536;19.066;2023-01-29T00:06:23;101150.41;;;0.39;100.00
60583;BME280;46415;47.536;19.066;2023-01-29T00:09:27;101156.31;;;0.33;100.00
60583;BME280;46415;47.536;19.066;2023-01-29T00:12:30;101146.94;;;0.29;100.00
60583;BME280;46415;47.536;19.066;2023-01-29T00:15:33;101160.47;;;0.22;100.00
60583;BME280;46415;47.536;19.066;2023-01-29T00:18:39;101163.84;;;0.21;100.00
60583;BME280;46415;47.536;19.066;2023-01-29T00:21:42;101164.66;;;0.17;100.00
60583;BME280;46415;47.536;19.066;2023-01-29T00:24:44;101158.69;;;0.15;100.00
60583;BME280;46415;47.536;19.066;2023-01-29T00:27:47;101168.81;;;0.12;100.00
60583;BME280;46415;47.536;19.066;2023-01-29T00:30:50;101170.53;;;0.10;100.00
60583;BME280;46415;47.536;19.066;2023-01-29T00:33:53;101173.88;;;0.05;100.00
60583;BME280;46415;47.536;19.066;2023-01-29T00:36:56;101175.59;;;0.06;100.00
60583;BME280;46415;47.536;19.066;2023-01-29T00:40:08;101178.00;;;-0.07;100.00
60583;BME280;46415;47.536;19.066;2023-01-29T00:43:11;101171.12;;;-0.12;100.00
60583;BME280;46415;47.536;19.066;2023-01-29T00:46:32;101181.28;;;-0.14;100.00
60583;BME280;46415;47.536;19.066;2023-01-29T00:49:35;101181.31;;;-0.12;100.00
60583;BME280;46415;47.536;19.066;2023-01-29T00:52:38;101187.19;;;-0.19;100.00
60583;BME280;46415;47.536;19.066;2023-01-29T00:55:44;101180.16;;;-0.34;100.00
60583;BME280;46415;47.536;19.066;2023-01-29T00:58:47;101180.88;;;-0.44;100.00
60583;BME280;46415;47.536;19.066;2023-01-29T01:01:49;101188.50;;;-0.46;100.00
60583;BME280;46415;47.536;19.066;2023-01-29T01:05:13;101183.31;;;-0.52;100.00
60583;BME280;46415;47.536;19.066;2023-01-29T01:08:19;101187.28;;;-0.70;100.00
60583;BME280;46415;47.536;19.066;2023-01-29T01:11:40;101185.44;;;-0.80;100.00
60583;BME280;46415;47.536;19.066;2023-01-29T01:14:43;101188.84;;;-0.80;100.00
60583;BME280;46415;47.536;19.066;2023-01-29T01:17:54;101181.09;;;-0.88;100.00
60583;BME280;46415;47.536;19.066;2023-01-29T01:20:57;101184.50;;;-0.87;100.00
60583;BME280;46415;47.536;19.066;2023-01-29T01:24:01;101193.06;;;-0.82;100.00
60583;BME280;46415;47.536;19.066;2023-01-29T01:27:07;101191.41;;;-0.80;100.00
60583;BME280;46415;47.536;19.066;2023-01-29T01:30:13;101194.88;;;-0.75;100.00
60583;BME280;46415;47.536;19.066;2023-01-29T01:33:16;101196.31;;;-0.92;100.00
60583;BME280;46415;47.536;19.066;2023-01-29T01:36:20;101200.47;;;-0.97;100.00
60583;BME280;46415;47.536;19.066;2023-01-29T01:39:23;101202.25;;;-0.92;100.00
60583;BME280;46415;47.536;19.066;2023-01-29T01:42:28;101202.13;;;-0.99;100.00
60583;BME280;46415;47.536;19.066;2023-01-29T01:45:34;101207.31;;;-0.93;100.00
60583;BME280;46415;47.536;19.066;2023-01-29T01:48:38;101207.28;;;-0.95;100.00
60583;BME280;46415;47.536;19.066;2023-01-29T01:51:58;101206.41;;;-0.98;100.00
60583;BME280;46415;47.536;19.066;2023-01-29T01:55:03;101206.41;;;-0.98;100.00
60583;BME280;46415;47.536;19.066;2023-01-29T01:58:09;101208.94;;;-0.98;100.00
60583;BME280;46415;47.536;19.066;2023-01-29T02:01:13;101206.41;;;-0.98;100.00
60583;BME280;46415;47.536;19.066;2023-01-29T02:04:20;101209.84;;;-0.95;100.00
60583;BME280;46415;47.536;19.066;2023-01-29T02:07:45;101201.34;;;-0.95;100.00
60583;BME280;46415;47.536;19.066;2023-01-29T02:11:07;101199.56;;;-0.99;100.00
60583;BME280;46415;47.536;19.066;2023-01-29T02:14:11;101204.62;;;-1.02;100.00
60583;BME280;46415;47.536;19.066;2023-01-29T02:17:16;101216.53;;;-1.01;100.00
60583;BME280;46415;47.536;19.066;2023-01-29T02:20:24;101212.22;;;-1.05;100.00
60583;BME280;46415;47.536;19.066;2023-01-29T02:31:18;101222.56;;;-0.96;100.00
60583;BME280;46415;47.536;19.066;2023-01-29T02:41:26;101219.59;;;-1.20;100.00
60583;BME280;46415;47.536;19.066;2023-01-29T02:44:37;101229.69;;;-1.25;100.00
60583;BME280;46415;47.536;19.066;2023-01-29T02:47:47;101238.94;;;-1.30;100.00
60583;BME280;46415;47.536;19.066;2023-01-29T02:50:57;101240.78;;;-1.23;100.00
60583;BME280;46415;47.536;19.066;2023-01-29T02:54:04;101243.44;;;-1.17;100.00
60583;BME280;46415;47.536;19.066;2023-01-29T03:00:25;101250.16;;;-1.20;100.00
60583;BME280;46415;47.536;19.066;2023-01-29T03:03:33;101248.38;;;-1.26;100.00
60583;BME280;46415;47.536;19.066;2023-01-29T03:06:42;101253.69;;;-1.12;100.00
60583;BME280;46415;47.536;19.066;2023-01-29T03:09:49;101249.41;;;-1.15;100.00
60583;BME280;46415;47.536;19.066;2023-01-29T03:16:43;101258.88;;;-1.06;100.00
60583;BME280;46415;47.536;19.066;2023-01-29T03:19:49;101251.50;;;-0.93;100.00
60583;BME280;46415;47.536;19.066;2023-01-29T03:23:09;101250.75;;;-0.87;100.00
60583;BME280;46415;47.536;19.066;2023-01-29T03:26:17;101256.00;;;-0.78;100.00
60583;BME280;46415;47.536;19.066;2023-01-29T03:29:41;101250.25;;;-0.66;100.00
60583;BME280;46415;47.536;19.066;2023-01-29T03:33:08;101252.09;;;-0.56;100.00
60583;BME280;46415;47.536;19.066;2023-01-29T03:36:18;101264.03;;;-0.52;100.00
60583;BME280;46415;47.536;19.066;2023-01-29T03:39:25;101263.28;;;-0.47;100.00
60583;BME280;46415;47.536;19.066;2023-01-29T03:45:57;101264.19;;;-0.42;100.00
60583;BME280;46415;47.536;19.066;2023-01-29T04:01:55;101272.13;;;-0.23;100.00
60583;BME280;46415;47.536;19.066;2023-01-29T04:05:04;101266.31;;;-0.15;100.00
60583;BME280;46415;47.536;19.066;2023-01-29T04:08:15;101256.97;;;-0.14;100.00
60583;BME280;46415;47.536;19.066;2023-01-29T04:11:22;101257.06;;;-0.05;100.00
60583;BME280;46415;47.536;19.066;2023-01-29T04:14:27;101257.13;;;-0.02;100.00
60583;BME280;46415;47.536;19.066;2023-01-29T04:17:36;101257.97;;;-0.03;100.00
60583;BME280;46415;47.536;19.066;2023-01-29T04:20:41;101260.56;;;0.00;100.00
60583;BME280;46415;47.536;19.066;2023-01-29T04:23:44;101267.44;;;0.07;100.00
60583;BME280;46415;47.536;19.066;2023-01-29T04:37:09;101259.97;;;0.21;100.00
60583;BME280;46415;47.536;19.066;2023-01-29T04:43:28;101264.97;;;0.13;100.00
60583;BME280;46415;47.536;19.066;2023-01-29T04:47:01;101260.78;;;0.18;100.00
60583;BME280;46415;47.536;19.066;2023-01-29T04:50:27;101264.06;;;0.08;100.00
60583;BME280;46415;47.536;19.066;2023-01-29T04:53:36;101267.59;;;0.16;100.00
60583;BME280;46415;47.536;19.066;2023-01-29T04:56:49;101270.91;;;0.11;100.00
60583;BME280;46415;47.536;19.066;2023-01-29T05:00:01;101272.56;;;0.07;100.00
60583;BME280;46415;47.536;19.066;2023-01-29T05:03:06;101266.63;;;0.08;100.00
60583;BME280;46415;47.536;19.066;2023-01-29T05:06:11;101265.69;;;0.03;100.00
60583;BME280;46415;47.536;19.066;2023-01-29T05:09:15;101265.69;;;0.00;100.00
60583;BME280;46415;47.536;19.066;2023-01-29T05:12:20;101260.59;;;0.03;100.00
60583;BME280;46415;47.536;19.066;2023-01-29T05:15:29;101261.56;;;0.13;100.00
60583;BME280;46415;47.536;19.066;2023-01-29T05:18:33;101267.59;;;0.19;100.00
60583;BME280;46415;47.536;19.066;2023-01-29T05:21:38;101266.63;;;0.08;100.00
60583;BME280;46415;47.536;19.066;2023-01-29T05:24:42;101259.94;;;0.16;100.00
60583;BME280;46415;47.536;19.066;2023-01-29T05:27:48;101260.81;;;0.20;100.00
60583;BME280;46415;47.536;19.066;2023-01-29T05:31:17;101253.22;;;0.26;100.00
60583;BME280;46415;47.536;19.066;2023-01-29T05:34:20;101266.09;;;0.33;100.00
60583;BME280;46415;47.536;19.066;2023-01-29T05:37:23;101259.03;;;0.14;100.00
60583;BME280;46415;47.536;19.066;2023-01-29T05:40:26;101262.34;;;0.07;100.00
60583;BME280;46415;47.536;19.066;2023-01-29T05:43:29;101264.19;;;0.17;100.00
60583;BME280;46415;47.536;19.066;2023-01-29T05:46:32;101254.78;;;0.13;100.00
60583;BME280;46415;47.536;19.066;2023-01-29T05:49:34;101261.66;;;0.20;100.00
60583;BME280;46415;47.536;19.066;2023-01-29T05:52:40;101257.44;;;0.22;100.00
60583;BME280;46415;47.536;19.066;2023-01-29T05:55:43;101268.38;;;0.14;100.00
60583;BME280;46415;47.536;19.066;2023-01-29T05:58:47;101268.44;;;0.18;100.00
60583;BME280;46415;47.536;19.066;2023-01-29T06:01:49;101266.84;;;0.23;100.00
60583;BME280;46415;47.536;19.066;2023-01-29T06:04:52;101265.81;;;0.12;100.00
60583;BME280;46415;47.536;19.066;2023-01-29T06:07:55;101276.97;;;0.17;100.00
60583;BME280;46415;47.536;19.066;2023-01-29T06:10:58;101271.03;;;0.20;100.00
60583;BME280;46415;47.536;19.066;2023-01-29T06:14:01;101286.38;;;0.24;100.00
60583;BME280;46415;47.536;19.066;2023-01-29T06:17:04;101279.56;;;0.22;100.00
60583;BME280;46415;47.536;19.066;2023-01-29T06:20:08;101282.16;;;0.26;100.00
60583;BME280;46415;47.536;19.066;2023-01-29T06:23:11;101293.09;;;0.15;100.00
60583;BME280;46415;47.536;19.066;2023-01-29T06:26:14;101301.69;;;0.21;100.00
60583;BME280;46415;47.536;19.066;2023-01-29T06:29:17;101295.69;;;0.19;100.00
60583;BME280;46415;47.536;19.066;2023-01-29T06:32:20;101321.03;;;0.07;100.00
60583;BME280;46415;47.536;19.066;2023-01-29T06:35:24;101322.81;;;0.13;100.00
60583;BME280;46415;47.536;19.066;2023-01-29T06:38:27;101316.75;;;0.06;100.00
60583;BME280;46415;47.536;19.066;2023-01-29T06:41:30;101316.91;;;0.15;100.00
60583;BME280;46415;47.536;19.066;2023-01-29T06:44:33;101323.72;;;0.15;100.00
60583;BME280;46415;47.536;19.066;2023-01-29T06:47:36;101333.97;;;0.19;100.00
60583;BME280;46415;47.536;19.066;2023-01-29T06:50:39;101335.53;;;0.08;100.00
60583;BME280;46415;47.536;19.066;2023-01-29T06:53:41;101335.66;;;0.17;100.00
60583;BME280;46415;47.536;19.066;2023-01-29T06:56:47;101344.91;;;0.09;100.00
60583;BME280;46415;47.536;19.066;2023-01-29T06:59:50;101339.97;;;0.21;100.00
60583;BME280;46415;47.536;19.066;2023-01-29T07:02:53;101338.41;;;0.32;100.00
60583;BME280;46415;47.536;19.066;2023-01-29T07:05:55;101342.53;;;0.21;100.00
60583;BME280;46415;47.536;19.066;2023-01-29T07:08:58;101329.66;;;0.14;100.00
60583;BME280;46415;47.536;19.066;2023-01-29T07:12:02;101329.66;;;0.14;100.00
60583;BME280;46415;47.536;19.066;2023-01-29T07:15:06;101324.72;;;0.27;100.00
60583;BME280;46415;47.536;19.066;2023-01-29T07:18:09;101329.00;;;0.28;100.00
60583;BME280;46415;47.536;19.066;2023-01-29T07:21:15;101324.84;;;0.35;100.00
60583;BME280;46415;47.536;19.066;2023-01-29T07:24:18;101321.34;;;0.30;100.00
60583;BME280;46415;47.536;19.066;2023-01-29T07:27:21;101322.34;;;0.39;100.00
60583;BME280;46415;47.536;19.066;2023-01-29T07:30:24;101315.50;;;0.35;100.00
60583;BME280;46415;47.536;19.066;2023-01-29T07:33:26;101313.72;;;0.31;100.00
60583;BME280;46415;47.536;19.066;2023-01-29T07:36:29;101315.44;;;0.32;100.00
60583;BME280;46415;47.536;19.066;2023-01-29T07:39:32;101311.28;;;0.42;100.00
60583;BME280;46415;47.536;19.066;2023-01-29T07:42:35;101306.25;;;0.48;100.00
60583;BME280;46415;47.536;19.066;2023-01-29T07:45:39;101302.09;;;0.55;100.00
60583;BME280;46415;47.536;19.066;2023-01-29T07:48:42;101293.66;;;0.59;100.00
60583;BME280;46415;47.536;19.066;2023-01-29T07:51:45;101297.06;;;0.61;100.00
60583;BME280;46415;47.536;19.066;2023-01-29T07:54:47;101309.00;;;0.62;100.00
60583;BME280;46415;47.536;19.066;2023-01-29T07:57:58;101312.50;;;0.70;100.00
60583;BME280;46415;47.536;19.066;2023-01-29T08:01:08;101306.41;;;0.59;100.00
60583;BME280;46415;47.536;19.066;2023-01-29T08:04:10;101310.69;;;0.61;100.00
60583;BME280;46415;47.536;19.066;2023-01-29T08:07:13;101310.88;;;0.78;100.00
60583;BME280;46415;47.536;19.066;2023-01-29T08:10:16;101318.50;;;0.73;100.00
60583;BME280;46415;47.536;19.066;2023-01-29T08:13:20;101316.78;;;0.74;100.00
60583;BME280;46415;47.536;19.066;2023-01-29T08:16:23;101314.38;;;0.86;100.00
60583;BME280;46415;47.536;19.066;2023-01-29T08:19:26;101311.06;;;0.93;100.00
60583;BME280;46415;47.536;19.066;2023-01-29T08:22:29;101316.97;;;0.91;100.00
60583;BME280;46415;47.536;19.066;2023-01-29T08:25:32;101323.00;;;0.97;100.00
60583;BME280;46415;47.536;19.066;2023-01-29T08:28:35;101322.97;;;0.93;100.00
60583;BME280;46415;47.536;19.066;2023-01-29T08:31:40;101331.50;;;0.96;100.00
60583;BME280;46415;47.536;19.066;2023-01-29T08:34:43;101322.91;;;0.87;100.00
60583;BME280;46415;47.536;19.066;2023-01-29T08:37:56;101326.28;;;0.84;100.00
60583;BME280;46415;47.536;19.066;2023-01-29T08:41:01;101338.34;;;0.97;100.00
60583;BME280;46415;47.536;19.066;2023-01-29T08:44:04;101335.69;;;0.87;100.00
60583;BME280;46415;47.536;19.066;2023-01-29T08:47:07;101347.53;;;0.80;100.00
60583;BME280;46415;47.536;19.066;2023-01-29T08:50:10;101353.38;;;0.70;100.00
60583;BME280;46415;47.536;19.066;2023-01-29T08:53:13;101365.28;;;0.69;100.00
60583;BME280;46415;47.536;19.066;2023-01-29T08:56:16;101370.44;;;0.74;100.00
60583;BME280;46415;47.536;19.066;2023-01-29T08:59:19;101373.91;;;0.77;100.00
60583;BME280;46415;47.536;19.066;2023-01-29T09:02:24;101376.50;;;0.80;100.00
60583;BME280;46415;47.536;19.066;2023-01-29T09:05:27;101373.69;;;0.61;100.00
60583;BME280;46415;47.536;19.066;2023-01-29T09:08:30;101373.69;;;0.61;100.00
60583;BME280;46415;47.536;19.066;2023-01-29T09:11:33;101375.41;;;0.62;100.00
60583;BME280;46415;47.536;19.066;2023-01-29T09:14:36;101366.84;;;0.58;100.00
60583;BME280;46415;47.536;19.066;2023-01-29T09:17:39;101377.88;;;0.56;100.00
60583;BME280;46415;47.536;19.066;2023-01-29T09:20:42;101373.69;;;0.61;100.00
60583;BME280;46415;47.536;19.066;2023-01-29T09:23:45;101371.19;;;0.64;100.00
60583;BME280;46415;47.536;19.066;2023-01-29T09:26:48;101375.59;;;0.77;99.40
60583;BME280;46415;47.536;19.066;2023-01-29T09:29:51;101374.66;;;0.72;100.00
60583;BME280;46415;47.536;19.066;2023-01-29T09:32:54;101375.78;;;0.92;100.00
60583;BME280;46415;47.536;19.066;2023-01-29T09:35:57;101382.75;;;1.05;97.49
60583;BME280;46415;47.536;19.066;2023-01-29T09:39:00;101385.25;;;1.02;97.90
60583;BME280;46415;47.536;19.066;2023-01-29T09:45:27;101376.88;;;1.15;98.89
60583;BME280;46415;47.536;19.066;2023-01-29T09:48:33;101380.28;;;1.13;96.17
60583;BME280;46415;47.536;19.066;2023-01-29T09:51:40;101387.81;;;1.02;95.41
60583;BME280;46415;47.536;19.066;2023-01-29T09:57:58;101379.28;;;1.00;95.58
60583;BME280;46415;47.536;19.066;2023-01-29T10:01:27;101387.50;;;0.78;95.64
60583;BME280;46415;47.536;19.066;2023-01-29T10:18:51;101392.00;;;0.94;92.94
60583;BME280;46415;47.536;19.066;2023-01-29T10:22:07;101392.28;;;1.21;92.87
60583;BME280;46415;47.536;19.066;2023-01-29T10:25:16;101389.78;;;1.28;91.94
60583;BME280;46415;47.536;19.066;2023-01-29T10:28:38;101385.53;;;1.25;90.96
60583;BME280;46415;47.536;19.066;2023-01-29T10:31:49;101386.28;;;1.18;89.87
60583;BME280;46415;47.536;19.066;2023-01-29T10:35:03;101383.63;;;1.09;91.87
60583;BME280;46415;47.536;19.066;2023-01-29T10:48:54;101370.06;;;1.14;90.34
60583;BME280;46415;47.536;19.066;2023-01-29T10:52:27;101376.06;;;1.16;88.88
60583;BME280;46415;47.536;19.066;2023-01-29T10:58:50;101371.53;;;0.96;87.55
60583;BME280;46415;47.536;19.066;2023-01-29T11:01:59;101351.16;;;1.00;90.12
60583;BME280;46415;47.536;19.066;2023-01-29T11:05:02;101345.25;;;1.06;87.69
60583;BME280;46415;47.536;19.066;2023-01-29T11:08:12;101345.19;;;0.98;87.20
60583;BME280;46415;47.536;19.066;2023-01-29T11:11:18;101344.47;;;1.11;87.26
60583;BME280;46415;47.536;19.066;2023-01-29T11:14:34;101352.19;;;1.16;86.16
60583;BME280;46415;47.536;19.066;2023-01-29T11:21:08;101341.19;;;1.26;85.96
60583;BME280;46415;47.536;19.066;2023-01-29T11:24:15;101329.03;;;1.04;83.58
60583;BME280;46415;47.536;19.066;2023-01-29T11:27:23;101324.81;;;1.07;84.87
60583;BME280;46415;47.536;19.066;2023-01-29T11:30:32;101324.19;;;1.30;84.52
60583;BME280;46415;47.536;19.066;2023-01-29T11:33:36;101325.16;;;1.41;81.37
60583;BME280;46415;47.536;19.066;2023-01-29T11:36:39;101315.72;;;1.35;81.59
60583;BME280;46415;47.536;19.066;2023-01-29T11:39:43;101310.53;;;1.28;82.01
60583;BME280;46415;47.536;19.066;2023-01-29T11:42:49;101301.94;;;1.18;81.28
60583;BME280;46415;47.536;19.066;2023-01-29T11:46:03;101292.50;;;1.14;80.96
60583;BME280;46415;47.536;19.066;2023-01-29T11:49:20;101292.56;;;1.18;80.85
60583;BME280;46415;47.536;19.066;2023-01-29T11:52:36;101284.94;;;1.23;80.28
60583;BME280;46415;47.536;19.066;2023-01-29T11:55:44;101275.72;;;1.45;79.32
60583;BME280;46415;47.536;19.066;2023-01-29T11:58:53;101284.31;;;1.48;78.83
60583;BME280;46415;47.536;19.066;2023-01-29T12:02:05;101275.72;;;1.45;77.46
60583;BME280;46415;47.536;19.066;2023-01-29T12:05:20;101276.50;;;1.35;77.76
60583;BME280;46415;47.536;19.066;2023-01-29T12:08:24;101279.19;;;1.51;76.08
60583;BME280;46415;47.536;19.066;2023-01-29T12:11:32;101277.50;;;1.52;76.38
60583;BME280;46415;47.536;19.066;2023-01-29T12:14:35;101277.72;;;1.85;75.48
60583;BME280;46415;47.536;19.066;2023-01-29T12:17:43;101282.88;;;1.88;74.37
60583;BME280;46415;47.536;19.066;2023-01-29T12:20:53;101271.91;;;2.08;70.65
60583;BME280;46415;47.536;19.066;2023-01-29T12:31:26;101270.00;;;1.79;70.56
60583;BME280;46415;47.536;19.066;2023-01-29T12:34:43;101264.03;;;1.80;70.77
60583;BME280;46415;47.536;19.066;2023-01-29T12:37:57;101257.94;;;1.58;72.91
60583;BME280;46415;47.536;19.066;2023-01-29T12:47:42;101268.44;;;1.96;69.30
60583;BME280;46415;47.536;19.066;2023-01-29T12:50:48;101254.66;;;1.78;70.19
60583;BME280;46415;47.536;19.066;2023-01-29T12:54:01;101264.88;;;1.76;71.83
60583;BME280;46415;47.536;19.066;2023-01-29T12:57:13;101256.38;;;1.79;70.18
60583;BME280;46415;47.536;19.066;2023-01-29T13:00:23;101257.09;;;1.62;70.16
60583;BME280;46415;47.536;19.066;2023-01-29T13:03:52;101256.25;;;1.60;72.09
60583;BME280;46415;47.536;19.066;2023-01-29T13:07:08;101250.31;;;1.68;71.37
60583;BME280;46415;47.536;19.066;2023-01-29T13:10:17;101236.03;;;2.09;70.46
60583;BME280;46415;47.536;19.066;2023-01-29T13:13:43;101235.28;;;2.34;68.85
60583;BME280;46415;47.536;19.066;2023-01-29T13:16:49;101227.53;;;2.15;69.34
60583;BME280;46415;47.536;19.066;2023-01-29T13:19:57;101218.97;;;2.05;68.48
60583;BME280;46415;47.536;19.066;2023-01-29T13:23:18;101219.75;;;1.90;68.71
60583;BME280;46415;47.536;19.066;2023-01-29T13:26:22;101218.09;;;2.03;70.03
60583;BME280;46415;47.536;19.066;2023-01-29T13:29:29;101204.56;;;2.30;67.80
60583;BME280;46415;47.536;19.066;2023-01-29T13:32:34;101198.41;;;1.88;67.88
60583;BME280;46415;47.536;19.066;2023-01-29T13:35:41;101200.72;;;1.46;69.45
60583;BME280;46415;47.536;19.066;2023-01-29T13:45:43;101217.19;;;1.89;68.98
60583;BME280;46415;47.536;19.066;2023-01-29T13:48:48;101226.59;;;1.97;69.78
60583;BME280;46415;47.536;19.066;2023-01-29T13:51:52;101226.66;;;2.07;68.58
60583;BME280;46415;47.536;19.066;2023-01-29T13:54:58;101213.56;;;1.53;70.03
60583;BME280;46415;47.536;19.066;2023-01-29T13:58:04;101215.25;;;1.48;70.28
60583;BME280;46415;47.536;19.066;2023-01-29T14:01:08;101210.91;;;1.37;71.92
60583;BME280;46415;47.536;19.066;2023-01-29T14:04:27;101210.91;;;1.40;70.98
60583;BME280;46415;47.536;19.066;2023-01-29T14:07:48;101213.53;;;1.47;70.59
60583;BME280;46415;47.536;19.066;2023-01-29T14:18:15;101226.41;;;1.67;69.07
60583;BME280;46415;47.536;19.066;2023-01-29T14:21:31;101227.03;;;1.30;69.33
60583;BME280;46415;47.536;19.066;2023-01-29T14:24:35;101225.94;;;1.00;72.55
60583;BME280;46415;47.536;19.066;2023-01-29T14:27:38;101226.63;;;0.84;72.15
60583;BME280;46415;47.536;19.066;2023-01-29T14:30:46;101233.34;;;0.71;73.19
60583;BME280;46415;47.536;19.066;2023-01-29T14:33:51;101227.06;;;0.44;73.67
60583;BME280;46415;47.536;19.066;2023-01-29T14:36:57;101228.56;;;0.26;74.80
60583;BME280;46415;47.536;19.066;2023-01-29T14:43:20;101229.69;;;0.51;75.76
60583;BME280;46415;47.536;19.066;2023-01-29T14:49:50;101240.53;;;1.15;71.13
60583;BME280;46415;47.536;19.066;2023-01-29T14:57:00;101220.84;;;0.22;76.29
60583;BME280;46415;47.536;19.066;2023-01-29T15:00:24;101226.37;;;-0.11;78.28
60583;BME280;46415;47.536;19.066;2023-01-29T15:06:46;101233.75;;;-0.32;79.40
60583;BME280;46415;47.536;19.066;2023-01-29T15:09:54;101223.19;;;-0.57;81.50
60583;BME280;46415;47.536;19.066;2023-01-29T15:13:34;101227.25;;;-0.69;80.92
60583;BME280;46415;47.536;19.066;2023-01-29T15:19:44;101214.00;;;-1.00;83.58
60583;BME280;46415;47.536;19.066;2023-01-29T15:22:49;101209.66;;;-1.05;83.76
60583;BME280;46415;47.536;19.066;2023-01-29T15:25:55;101209.66;;;-1.05;84.35
60583;BME280;46415;47.536;19.066;2023-01-29T15:29:00;101209.59;;;-1.10;84.72
60583;BME280;46415;47.536;19.066;2023-01-29T15:32:06;101210.25;;;-1.21;84.89
60583;BME280;46415;47.536;19.066;2023-01-29T15:35:35;101207.63;;;-1.25;84.54
60583;BME280;46415;47.536;19.066;2023-01-29T15:38:39;101221.09;;;-1.32;84.64
60583;BME280;46415;47.536;19.066;2023-01-29T15:41:43;101213.25;;;-1.42;85.22
60583;BME280;46415;47.536;19.066;2023-01-29T15:44:46;101209.69;;;-1.52;87.26
60583;BME280;46415;47.536;19.066;2023-01-29T15:47:51;101220.66;;;-1.54;88.23
60583;BME280;46415;47.536;19.066;2023-01-29T15:50:55;101219.34;;;-1.78;89.42
60583;BME280;46415;47.536;19.066;2023-01-29T15:54:03;101215.16;;;-1.76;89.59
60583;BME280;46415;47.536;19.066;2023-01-29T15:57:17;101213.37;;;-1.81;89.88
60583;BME280;46415;47.536;19.066;2023-01-29T16:00:23;101221.66;;;-1.91;91.40
60583;BME280;46415;47.536;19.066;2023-01-29T16:03:31;101225.00;;;-1.92;92.29
60583;BME280;46415;47.536;19.066;2023-01-29T16:06:36;101226.63;;;-1.97;93.53
60583;BME280;46415;47.536;19.066;2023-01-29T16:09:41;101229.28;;;-1.91;92.96
60583;BME280;46415;47.536;19.066;2023-01-29T16:12:45;101221.69;;;-1.88;92.22
60583;BME280;46415;47.536;19.066;2023-01-29T16:16:01;101226.06;;;-1.83;93.40
60583;BME280;46415;47.536;19.066;2023-01-29T16:19:18;101226.69;;;-1.93;93.81
60583;BME280;46415;47.536;19.066;2023-01-29T16:22:24;101233.50;;;-1.90;93.35
60583;BME280;46415;47.536;19.066;2023-01-29T16:25:29;101234.28;;;-1.94;94.21
60583;BME280;46415;47.536;19.066;2023-01-29T16:28:43;101235.06;;;-1.98;93.79
60583;BME280;46415;47.536;19.066;2023-01-29T16:31:51;101239.06;;;-2.10;94.25
60583;BME280;46415;47.536;19.066;2023-01-29T16:34:57;101245.62;;;-2.19;95.02
60583;BME280;46415;47.536;19.066;2023-01-29T16:38:25;101247.75;;;-2.00;94.94
60583;BME280;46415;47.536;19.066;2023-01-29T16:41:32;101257.13;;;-1.96;93.64
60583;BME280;46415;47.536;19.066;2023-01-29T16:44:36;101260.53;;;-1.97;93.92
60583;BME280;46415;47.536;19.066;2023-01-29T16:47:41;101253.16;;;-1.83;92.30
60583;BME280;46415;47.536;19.066;2023-01-29T16:50:44;101258.94;;;-1.90;93.03
60583;BME280;46415;47.536;19.066;2023-01-29T16:54:05;101266.53;;;-1.93;92.95
60583;BME280;46415;47.536;19.066;2023-01-29T16:57:24;101264.72;;;-1.99;93.69
60583;BME280;46415;47.536;19.066;2023-01-29T17:00:29;101266.41;;;-1.99;93.68
60583;BME280;46415;47.536;19.066;2023-01-29T17:03:33;101259.38;;;-2.11;94.70
60583;BME280;46415;47.536;19.066;2023-01-29T17:06:41;101265.09;;;-2.20;95.36
60583;BME280;46415;47.536;19.066;2023-01-29T17:09:57;101257.78;;;-2.06;94.35
60583;BME280;46415;47.536;19.066;2023-01-29T17:13:05;101259.56;;;-2.02;94.33
60583;BME280;46415;47.536;19.066;2023-01-29T17:19:22;101255.41;;;-1.98;93.40
60583;BME280;46415;47.536;19.066;2023-01-29T17:22:26;101256.12;;;-2.04;93.41
60583;BME280;46415;47.536;19.066;2023-01-29T17:25:30;101249.84;;;-2.21;94.43
60583;BME280;46415;47.536;19.066;2023-01-29T17:28:33;101242.22;;;-2.21;94.70
60583;BME280;46415;47.536;19.066;2023-01-29T17:31:36;101242.22;;;-2.21;95.09
60583;BME280;46415;47.536;19.066;2023-01-29T17:34:39;101232.81;;;-2.24;95.47
60583;BME280;46415;47.536;19.066;2023-01-29T17:37:43;101232.69;;;-2.30;95.29
60583;BME280;46415;47.536;19.066;2023-01-29T17:40:50;101224.25;;;-2.29;95.35
60583;BME280;46415;47.536;19.066;2023-01-29T17:43:54;101234.41;;;-2.29;95.82
60583;BME280;46415;47.536;19.066;2023-01-29T17:46:57;101219.06;;;-2.32;96.23
60583;BME280;46415;47.536;19.066;2023-01-29T17:50:01;101221.53;;;-2.36;96.41
60583;BME280;46415;47.536;19.066;2023-01-29T17:53:04;101223.06;;;-2.44;97.09
60583;BME280;46415;47.536;19.066;2023-01-29T17:56:16;101216.13;;;-2.50;98.09
60583;BME280;46415;47.536;19.066;2023-01-29T17:59:22;101213.56;;;-2.50;97.24
60583;BME280;46415;47.536;19.066;2023-01-29T18:02:27;101203.50;;;-2.47;98.23
60583;BME280;46415;47.536;19.066;2023-01-29T18:05:31;101211.88;;;-2.51;97.41
60583;BME280;46415;47.536;19.066;2023-01-29T18:08:37;101205.94;;;-2.52;97.34
60583;BME280;46415;47.536;19.066;2023-01-29T18:11:41;101207.59;;;-2.54;97.18
60583;BME280;46415;47.536;19.066;2023-01-29T18:14:45;101209.25;;;-2.54;97.44
60583;BME280;46415;47.536;19.066;2023-01-29T18:17:48;101200.22;;;-2.41;96.64
60583;BME280;46415;47.536;19.066;2023-01-29T18:20:55;101207.66;;;-2.51;96.60
60583;BME280;46415;47.536;19.066;2023-01-29T18:23:58;101203.97;;;-2.63;97.74